createdAt,value
2023-10-26T00:01:20.940Z,8.79
2023-10-26T00:03:23.751Z,8.84
2023-10-26T00:05:26.882Z,8.92
2023-10-26T00:07:29.937Z,8.92
2023-10-26T00:09:32.652Z,9.04
2023-10-26T00:11:35.378Z,9.02
2023-10-26T00:13:39.589Z,9.17
2023-10-26T00:15:42.169Z,9.12
2023-10-26T00:17:45.401Z,9.24
2023-10-26T00:19:48.160Z,9.20
2023-10-26T00:21:52.997Z,9.26
2023-10-26T00:23:55.585Z,9.22
2023-10-26T00:25:58.742Z,9.22
2023-10-26T00:28:01.436Z,9.36
2023-10-26T00:30:07.419Z,9.51
2023-10-26T00:32:10.405Z,9.57
2023-10-26T00:34:13.967Z,9.67
2023-10-26T00:36:16.539Z,9.68
2023-10-26T00:38:19.267Z,9.72
2023-10-26T00:40:22.028Z,9.72
2023-10-26T00:42:29.277Z,9.82
2023-10-26T00:44:33.080Z,9.64
2023-10-26T00:46:37.727Z,9.60
2023-10-26T00:48:41.590Z,9.51
2023-10-26T00:50:45.635Z,9.61
2023-10-26T00:52:49.851Z,9.76
2023-10-26T00:54:54.159Z,9.64
2023-10-26T00:56:58.608Z,9.57
2023-10-26T00:59:01.512Z,9.58
2023-10-26T01:01:04.394Z,9.59
2023-10-26T01:03:08.588Z,9.59
2023-10-26T01:05:11.232Z,9.58
2023-10-26T01:07:13.874Z,9.50
2023-10-26T01:09:17.326Z,9.59
2023-10-26T01:11:20.920Z,9.64
2023-10-26T01:13:23.949Z,9.66
2023-10-26T01:15:26.752Z,9.62
2023-10-26T01:17:29.659Z,9.61
2023-10-26T01:19:41.076Z,9.75
2023-10-26T01:21:51.848Z,9.68
2023-10-26T01:23:56.155Z,9.66
2023-10-26T01:25:59.945Z,9.67
2023-10-26T01:28:02.850Z,9.63
2023-10-26T01:30:06.964Z,9.48
2023-10-26T01:32:10.627Z,9.50
2023-10-26T01:34:13.246Z,9.57
2023-10-26T01:36:16.102Z,9.63
2023-10-26T01:38:20.181Z,9.45
2023-10-26T01:40:22.977Z,9.57
2023-10-26T01:42:25.596Z,9.35
2023-10-26T01:44:28.295Z,9.52
2023-10-26T01:46:31.187Z,9.55
2023-10-26T01:48:34.020Z,9.65
2023-10-26T01:50:37.221Z,9.61
2023-10-26T01:52:41.279Z,9.33
2023-10-26T01:54:45.555Z,9.52
2023-10-26T01:56:48.485Z,9.54
2023-10-26T01:58:51.277Z,9.67
2023-10-26T02:00:54.011Z,9.69
2023-10-26T02:02:57.475Z,9.71
2023-10-26T02:05:00.549Z,9.57
2023-10-26T02:07:03.278Z,9.63
2023-10-26T02:09:06.168Z,9.57
2023-10-26T02:11:10.210Z,9.70
2023-10-26T02:13:13.019Z,9.61
2023-10-26T02:15:15.925Z,9.65
2023-10-26T02:17:18.859Z,9.68
2023-10-26T02:19:22.835Z,9.29
2023-10-26T02:21:25.774Z,9.55
2023-10-26T02:23:29.425Z,9.68
2023-10-26T02:25:32.502Z,9.72
2023-10-26T02:27:37.154Z,9.62
2023-10-26T02:29:40.397Z,9.77
2023-10-26T02:31:43.402Z,9.77
2023-10-26T02:33:46.299Z,9.73
2023-10-26T02:35:49.142Z,9.30
2023-10-26T02:37:52.124Z,9.59
2023-10-26T02:39:56.240Z,9.78
2023-10-26T02:41:59.399Z,9.84
2023-10-26T02:44:04.361Z,9.95
2023-10-26T02:46:07.382Z,9.99
2023-10-26T02:48:10.295Z,9.99
2023-10-26T02:50:13.500Z,10.11
2023-10-26T02:52:16.420Z,9.99
2023-10-26T02:54:19.426Z,9.86
2023-10-26T02:56:22.381Z,9.86
2023-10-26T02:58:26.044Z,9.88
2023-10-26T03:00:30.677Z,9.84
2023-10-26T03:02:34.086Z,9.93
2023-10-26T03:04:39.050Z,9.99
2023-10-26T03:06:42.749Z,10.03
2023-10-26T03:08:45.652Z,9.86
2023-10-26T03:10:48.848Z,10.04
2023-10-26T03:12:51.839Z,9.81
2023-10-26T03:14:54.774Z,9.80
2023-10-26T03:16:59.686Z,9.88
2023-10-26T03:19:02.625Z,9.97
2023-10-26T03:21:06.064Z,9.86
2023-10-26T03:23:09.036Z,9.94
2023-10-26T03:25:15.437Z,10.05
2023-10-26T03:27:18.976Z,10.18
2023-10-26T03:29:22.881Z,10.13
2023-10-26T03:31:25.896Z,10.10
2023-10-26T03:33:30.300Z,10.25
2023-10-26T03:35:36.803Z,10.28
2023-10-26T03:37:39.760Z,10.14
2023-10-26T03:39:42.803Z,10.23
2023-10-26T03:41:45.842Z,10.31
2023-10-26T03:43:48.928Z,10.44
2023-10-26T03:45:51.871Z,10.29
2023-10-26T03:47:55.095Z,10.52
2023-10-26T03:49:59.512Z,10.61
2023-10-26T03:52:02.729Z,10.55
2023-10-26T03:54:05.947Z,10.69
2023-10-26T03:56:09.670Z,10.47
2023-10-26T03:58:13.985Z,10.53
2023-10-26T04:00:18.177Z,10.52
2023-10-26T04:02:21.144Z,10.55
2023-10-26T04:04:24.133Z,10.52
2023-10-26T04:06:28.438Z,10.56
2023-10-26T04:08:31.370Z,10.54
2023-10-26T04:10:35.620Z,10.61
2023-10-26T04:12:38.902Z,10.43
2023-10-26T04:14:41.831Z,10.61
2023-10-26T04:16:49.159Z,10.72
2023-10-26T04:18:52.148Z,10.69
2023-10-26T04:20:55.133Z,10.36
2023-10-26T04:22:59.706Z,10.62
2023-10-26T04:25:02.687Z,10.50
2023-10-26T04:27:05.776Z,10.60
2023-10-26T04:29:09.002Z,10.57
2023-10-26T04:31:11.865Z,10.51
2023-10-26T04:33:15.208Z,10.67
2023-10-26T04:35:18.246Z,10.79
2023-10-26T04:37:21.360Z,10.81
2023-10-26T04:39:25.872Z,10.90
2023-10-26T04:41:28.835Z,10.82
2023-10-26T04:43:31.700Z,10.88
2023-10-26T04:45:34.964Z,10.75
2023-10-26T04:47:38.114Z,10.80
2023-10-26T04:49:41.786Z,10.88
2023-10-26T04:51:44.683Z,10.87
2023-10-26T04:53:47.659Z,10.72
2023-10-26T04:55:52.162Z,10.55
2023-10-26T04:57:55.235Z,10.70
2023-10-26T04:59:58.258Z,10.78
2023-10-26T05:02:01.215Z,10.74
2023-10-26T05:04:04.251Z,10.62
2023-10-26T05:06:08.179Z,10.73
2023-10-26T05:08:11.117Z,10.89
2023-10-26T05:10:14.600Z,10.87
2023-10-26T05:12:19.038Z,10.95
2023-10-26T05:14:22.031Z,11.10
2023-10-26T05:16:25.180Z,10.88
2023-10-26T05:18:28.312Z,10.86
2023-10-26T05:20:32.039Z,11.07
2023-10-26T05:22:35.191Z,11.01
2023-10-26T05:24:40.391Z,11.09
2023-10-26T05:26:43.356Z,11.16
2023-10-26T05:28:48.640Z,11.28
2023-10-26T05:30:51.694Z,11.31
2023-10-26T05:32:54.664Z,11.35
2023-10-26T05:34:57.653Z,11.40
2023-10-26T05:37:00.528Z,11.53
2023-10-26T05:39:04.820Z,11.39
2023-10-26T05:41:07.771Z,11.57
2023-10-26T05:43:11.809Z,11.57
2023-10-26T05:45:16.527Z,11.67
2023-10-26T05:47:22.018Z,11.54
2023-10-26T05:49:24.715Z,11.61
2023-10-26T05:51:27.868Z,11.63
2023-10-26T05:53:30.800Z,11.63
2023-10-26T05:55:33.823Z,11.64
2023-10-26T05:57:36.828Z,11.62
2023-10-26T05:59:39.861Z,11.54
2023-10-26T06:01:44.273Z,11.66
2023-10-26T06:03:47.403Z,11.58
2023-10-26T06:05:50.372Z,11.54
2023-10-26T06:07:53.613Z,11.66
2023-10-26T06:09:56.707Z,11.65
2023-10-26T06:11:59.766Z,11.67
2023-10-26T06:14:02.675Z,11.66
2023-10-26T06:16:06.558Z,11.77
2023-10-26T06:18:14.416Z,11.86
2023-10-26T06:20:18.353Z,11.89
2023-10-26T06:22:21.280Z,12.00
2023-10-26T06:24:24.341Z,12.08
2023-10-26T06:26:27.308Z,12.10
2023-10-26T06:28:30.691Z,12.09
2023-10-26T06:30:35.595Z,12.20
2023-10-26T06:32:38.895Z,12.12
2023-10-26T06:34:43.500Z,12.25
2023-10-26T06:36:46.869Z,12.12
2023-10-26T06:38:49.837Z,12.15
2023-10-26T06:40:52.963Z,12.21
2023-10-26T06:42:56.007Z,12.34
2023-10-26T06:44:59.082Z,12.18
2023-10-26T06:47:02.214Z,12.40
2023-10-26T06:49:18.353Z,12.51
2023-10-26T06:51:31.544Z,12.38
2023-10-26T06:53:34.568Z,12.40
2023-10-26T06:55:37.473Z,12.40
2023-10-26T06:57:40.536Z,12.58
2023-10-26T06:59:43.494Z,12.44
2023-10-26T07:02:09.594Z,12.38
2023-10-26T07:04:09.376Z,12.57
2023-10-26T07:06:12.382Z,12.54
2023-10-26T07:08:17.140Z,12.45
2023-10-26T07:10:22.868Z,12.44
2023-10-26T07:12:26.028Z,12.60
2023-10-26T07:14:29.093Z,12.57
2023-10-26T07:16:32.063Z,12.57
2023-10-26T07:18:35.295Z,12.66
2023-10-26T07:20:38.636Z,12.88
2023-10-26T07:22:42.031Z,12.84
2023-10-26T07:24:46.496Z,12.94
2023-10-26T07:26:51.202Z,12.81
2023-10-26T07:28:56.424Z,12.94
2023-10-26T07:30:59.891Z,12.81
2023-10-26T07:33:03.038Z,12.95
2023-10-26T07:35:06.602Z,13.07
2023-10-26T07:37:09.605Z,13.12
2023-10-26T07:39:44.485Z,13.01
2023-10-26T07:42:06.779Z,13.32
2023-10-26T07:43:59.857Z,13.54
2023-10-26T07:46:03.312Z,13.41
2023-10-26T07:48:06.882Z,13.59
2023-10-26T07:50:10.187Z,13.61
2023-10-26T07:52:13.137Z,13.66
2023-10-26T07:54:16.399Z,13.56
2023-10-26T07:56:20.764Z,13.43
2023-10-26T07:58:25.601Z,14.50
2023-10-26T08:00:29.287Z,14.45
2023-10-26T08:02:35.290Z,14.23
2023-10-26T08:04:38.940Z,14.58
2023-10-26T08:06:41.872Z,15.39
2023-10-26T08:08:44.856Z,16.14
2023-10-26T08:10:47.867Z,17.15
2023-10-26T08:12:53.177Z,17.22
2023-10-26T08:16:10.895Z,17.57
2023-10-26T08:17:22.376Z,18.47
2023-10-26T08:19:26.175Z,18.53
2023-10-26T08:21:29.666Z,18.41
2023-10-26T08:23:34.469Z,17.49
2023-10-26T08:25:38.098Z,17.23
2023-10-26T08:27:41.095Z,17.06
2023-10-26T08:29:44.605Z,16.40
2023-10-26T08:31:49.334Z,16.40
2023-10-26T08:33:52.440Z,16.42
2023-10-26T08:35:55.375Z,15.41
2023-10-26T08:37:58.555Z,15.40
2023-10-26T08:40:01.573Z,15.46
2023-10-26T08:42:05.562Z,15.61
2023-10-26T08:44:08.726Z,15.49
2023-10-26T08:46:13.421Z,15.57
2023-10-26T08:48:19.467Z,15.40
2023-10-26T08:50:23.932Z,15.61
2023-10-26T08:52:28.560Z,15.36
2023-10-26T08:54:31.707Z,15.24
2023-10-26T08:56:34.716Z,15.64
2023-10-26T08:58:38.565Z,15.42
2023-10-26T09:00:42.490Z,15.59
2023-10-26T09:02:46.319Z,15.65
2023-10-26T09:05:04.456Z,15.65
2023-10-26T09:07:08.237Z,15.81
2023-10-26T09:09:11.577Z,15.47
2023-10-26T09:11:22.676Z,15.52
2023-10-26T09:13:27.273Z,15.73
2023-10-26T09:15:30.829Z,15.28
2023-10-26T09:17:34.386Z,15.49
2023-10-26T09:19:42.486Z,15.36
2023-10-26T09:21:58.143Z,15.50
2023-10-26T09:24:01.477Z,15.39
2023-10-26T09:26:05.939Z,15.36
2023-10-26T09:28:08.971Z,15.21
2023-10-26T09:30:27.408Z,15.31
2023-10-26T09:32:34.508Z,15.33
2023-10-26T09:34:44.059Z,15.24
2023-10-26T09:37:02.141Z,14.96
2023-10-26T09:39:08.624Z,14.88
2023-10-26T09:41:13.658Z,15.07
2023-10-26T09:43:16.627Z,14.96
2023-10-26T09:45:20.630Z,14.88
2023-10-26T09:47:26.034Z,15.56
2023-10-26T09:49:29.451Z,15.69
2023-10-26T09:51:32.527Z,15.66
2023-10-26T09:53:39.855Z,15.59
2023-10-26T09:55:44.573Z,15.51
2023-10-26T09:57:54.547Z,15.68
2023-10-26T10:00:00.671Z,15.46
2023-10-26T10:02:15.263Z,15.45
2023-10-26T10:04:35.234Z,15.57
2023-10-26T10:06:52.321Z,15.29
2023-10-26T10:09:03.530Z,15.29
2023-10-26T10:11:19.306Z,15.42
2023-10-26T10:13:37.618Z,15.34
2023-10-26T10:15:43.803Z,15.42
2023-10-26T10:18:04.458Z,15.28
2023-10-26T10:20:30.905Z,15.20
2023-10-26T10:22:55.267Z,15.31
2023-10-26T10:25:01.189Z,15.22
2023-10-26T10:27:10.958Z,15.18
2023-10-26T10:29:20.646Z,15.20
2023-10-26T10:31:42.177Z,15.13
2023-10-26T10:33:46.595Z,15.25
2023-10-26T10:36:04.639Z,15.27
2023-10-26T10:38:22.936Z,15.41
2023-10-26T10:40:27.482Z,15.49
2023-10-26T10:42:32.332Z,15.39
2023-10-26T10:44:37.817Z,15.49
2023-10-26T10:46:40.424Z,15.63
2023-10-26T10:49:04.766Z,15.76
2023-10-26T10:51:07.790Z,15.54
2023-10-26T10:53:16.600Z,15.63
2023-10-26T10:55:21.826Z,15.73
2023-10-26T10:57:26.691Z,15.63
2023-10-26T10:59:31.978Z,15.66
2023-10-26T11:01:34.820Z,15.68
2023-10-26T11:03:38.362Z,15.57
2023-10-26T11:05:41.873Z,15.57
2023-10-26T11:07:44.936Z,15.44
2023-10-26T11:09:49.620Z,15.39
2023-10-26T11:11:52.779Z,15.62
2023-10-26T11:14:10.951Z,15.73
2023-10-26T11:16:17.949Z,15.64
2023-10-26T11:18:21.134Z,15.80
2023-10-26T11:20:38.692Z,15.88
2023-10-26T11:22:41.596Z,15.86
2023-10-26T11:24:45.556Z,15.85
2023-10-26T11:27:09.388Z,15.55
2023-10-26T11:29:19.775Z,15.79
2023-10-26T11:31:43.958Z,15.83
2023-10-26T11:33:47.193Z,15.90
2023-10-26T11:35:50.104Z,15.83
2023-10-26T11:37:55.246Z,15.81
2023-10-26T11:39:58.222Z,15.82
2023-10-26T11:42:01.259Z,15.61
2023-10-26T11:44:05.463Z,15.67
2023-10-26T11:46:09.982Z,15.73
2023-10-26T11:48:12.997Z,15.76
2023-10-26T11:50:26.714Z,15.92
2023-10-26T11:52:29.691Z,15.71
2023-10-26T11:54:32.825Z,15.73
2023-10-26T11:56:35.789Z,15.77
2023-10-26T11:58:39.789Z,15.79
2023-10-26T12:00:43.699Z,15.80
2023-10-26T12:02:48.632Z,15.67
2023-10-26T12:04:51.584Z,15.72
2023-10-26T12:06:54.545Z,15.60
2023-10-26T12:08:57.498Z,15.53
2023-10-26T12:11:00.537Z,15.46
2023-10-26T12:13:03.702Z,15.58
2023-10-26T12:15:07.989Z,15.48
2023-10-26T12:17:11.165Z,15.46
2023-10-26T12:19:15.638Z,15.29
2023-10-26T12:21:19.009Z,15.49
2023-10-26T12:23:22.052Z,15.43
2023-10-26T12:25:25.300Z,15.77
2023-10-26T12:27:28.480Z,15.55
2023-10-26T12:29:32.708Z,15.39
2023-10-26T12:31:35.878Z,15.34
2023-10-26T12:33:41.306Z,15.41
2023-10-26T12:35:48.332Z,15.51
2023-10-26T12:37:51.328Z,15.26
2023-10-26T12:39:54.423Z,15.43
2023-10-26T12:41:57.226Z,15.52
2023-10-26T12:44:00.279Z,15.50
2023-10-26T12:46:03.309Z,15.35
2023-10-26T12:48:06.666Z,15.51
2023-10-26T12:50:09.816Z,15.44
2023-10-26T12:52:14.336Z,15.41
2023-10-26T12:54:17.427Z,15.38
2023-10-26T12:56:21.699Z,15.26
2023-10-26T12:58:24.677Z,15.39
2023-10-26T13:00:28.474Z,15.09
2023-10-26T13:02:31.502Z,15.02
2023-10-26T13:04:35.350Z,15.11
2023-10-26T13:06:38.593Z,15.18
2023-10-26T13:08:43.129Z,15.23
2023-10-26T13:10:46.119Z,15.15
2023-10-26T13:12:49.353Z,15.13
2023-10-26T13:14:56.935Z,15.14
2023-10-26T13:17:07.373Z,15.18
2023-10-26T13:19:10.326Z,15.03
2023-10-26T13:21:13.427Z,15.02
2023-10-26T13:23:16.358Z,14.84
2023-10-26T13:25:20.796Z,14.87
2023-10-26T13:27:23.960Z,14.91
2023-10-26T13:29:27.087Z,14.93
2023-10-26T13:31:30.188Z,14.78
2023-10-26T13:33:34.291Z,14.76
2023-10-26T13:35:37.285Z,14.78
2023-10-26T13:37:40.502Z,14.53
2023-10-26T13:39:43.767Z,14.57
2023-10-26T13:41:48.406Z,14.59
2023-10-26T13:43:52.749Z,14.58
2023-10-26T13:45:55.690Z,14.43
2023-10-26T13:48:01.118Z,14.29
2023-10-26T13:50:03.889Z,14.56
2023-10-26T13:52:07.233Z,14.48
2023-10-26T13:54:10.229Z,14.59
2023-10-26T13:56:13.178Z,14.66
2023-10-26T13:58:17.966Z,14.73
2023-10-26T14:00:20.917Z,14.71
2023-10-26T14:02:25.495Z,14.63
2023-10-26T14:04:28.468Z,14.70
2023-10-26T14:06:32.752Z,14.73
2023-10-26T14:08:36.219Z,14.68
2023-10-26T14:10:41.874Z,14.71
2023-10-26T14:12:44.363Z,14.79
2023-10-26T14:14:48.879Z,14.68
2023-10-26T14:16:52.477Z,14.57
2023-10-26T14:18:55.692Z,14.50
2023-10-26T14:20:58.639Z,14.48
2023-10-26T14:23:03.481Z,14.41
2023-10-26T14:25:08.174Z,14.18
2023-10-26T14:27:11.311Z,14.07
2023-10-26T14:29:14.787Z,14.06
2023-10-26T14:31:19.306Z,13.76
2023-10-26T14:33:23.028Z,13.99
2023-10-26T14:35:26.022Z,13.88
2023-10-26T14:37:28.988Z,13.83
2023-10-26T14:39:31.995Z,13.76
2023-10-26T14:41:35.174Z,13.90
2023-10-26T14:43:38.206Z,13.98
2023-10-26T14:45:41.238Z,13.97
2023-10-26T14:47:45.818Z,14.02
2023-10-26T14:49:48.777Z,14.01
2023-10-26T14:51:51.763Z,13.95
2023-10-26T14:53:55.720Z,13.91
2023-10-26T14:56:01.733Z,13.97
2023-10-26T14:58:04.596Z,13.92
2023-10-26T15:00:09.269Z,13.83
2023-10-26T15:02:12.150Z,13.79
2023-10-26T15:04:17.087Z,13.79
2023-10-26T15:06:20.091Z,13.69
2023-10-26T15:08:23.080Z,13.74
2023-10-26T15:10:29.763Z,13.67
2023-10-26T15:12:35.316Z,13.55
2023-10-26T15:14:38.250Z,13.64
2023-10-26T15:16:42.183Z,13.58
2023-10-26T15:18:46.386Z,13.64
2023-10-26T15:20:50.981Z,13.72
2023-10-26T15:22:53.850Z,13.74
2023-10-26T15:24:57.033Z,13.78
2023-10-26T15:27:00.413Z,13.86
2023-10-26T15:29:03.450Z,13.88
2023-10-26T15:31:06.457Z,13.83
2023-10-26T15:33:09.428Z,13.94
2023-10-26T15:35:12.545Z,13.93
2023-10-26T15:37:17.642Z,13.89
2023-10-26T15:39:20.674Z,13.87
2023-10-26T15:41:23.696Z,13.88
2023-10-26T15:43:26.716Z,13.86
2023-10-26T15:45:29.657Z,13.78
2023-10-26T15:47:32.663Z,13.71
2023-10-26T15:49:37.958Z,13.64
2023-10-26T15:51:40.882Z,13.54
2023-10-26T15:53:45.891Z,13.56
2023-10-26T15:55:57.120Z,13.48
2023-10-26T15:58:00.199Z,13.45
2023-10-26T16:00:07.808Z,13.44
2023-10-26T16:02:10.884Z,13.37
2023-10-26T16:04:13.880Z,13.29
2023-10-26T16:06:17.510Z,13.25
2023-10-26T16:08:20.466Z,13.21
2023-10-26T16:10:24.944Z,13.28
2023-10-26T16:12:27.842Z,13.28
2023-10-26T16:14:30.775Z,13.31
2023-10-26T16:16:33.867Z,13.25
2023-10-26T16:18:37.016Z,13.19
2023-10-26T16:20:39.926Z,13.11
2023-10-26T16:22:42.964Z,13.07
2023-10-26T16:24:46.164Z,13.08
2023-10-26T16:26:50.787Z,13.10
2023-10-26T16:28:53.752Z,13.05
2023-10-26T16:31:01.245Z,13.03
2023-10-26T16:33:04.852Z,13.02
2023-10-26T16:35:11.166Z,13.04
2023-10-26T16:37:14.085Z,13.06
2023-10-26T16:39:17.096Z,13.05
2023-10-26T16:41:20.154Z,12.98
2023-10-26T16:43:24.991Z,13.07
2023-10-26T16:45:28.212Z,12.98
2023-10-26T16:47:35.354Z,12.99
2023-10-26T16:49:44.148Z,12.87
2023-10-26T16:51:47.187Z,12.60
2023-10-26T16:53:50.172Z,12.36
2023-10-26T16:55:59.888Z,12.43
2023-10-26T16:58:02.763Z,12.47
2023-10-26T17:00:11.368Z,12.05
2023-10-26T17:02:14.423Z,12.05
2023-10-26T17:04:17.313Z,12.23
2023-10-26T17:06:20.253Z,12.00
2023-10-26T17:08:23.217Z,12.18
2023-10-26T17:10:26.185Z,12.51
2023-10-26T17:12:29.262Z,12.42
2023-10-26T17:14:32.071Z,12.40
2023-10-26T17:16:36.705Z,12.42
2023-10-26T17:18:39.779Z,12.37
2023-10-26T17:20:42.664Z,12.39
2023-10-26T17:22:45.590Z,12.36
2023-10-26T17:24:49.753Z,12.29
2023-10-26T17:26:52.618Z,12.07
2023-10-26T17:28:57.935Z,12.02
2023-10-26T17:31:07.202Z,12.01
2023-10-26T17:33:14.437Z,11.95
2023-10-26T17:35:17.931Z,11.84
2023-10-26T17:37:21.281Z,11.72
2023-10-26T17:39:25.732Z,11.69
2023-10-26T17:41:28.788Z,11.61
2023-10-26T17:43:31.630Z,11.42
2023-10-26T17:45:34.861Z,11.58
2023-10-26T17:47:37.884Z,11.70
2023-10-26T17:49:42.500Z,11.78
2023-10-26T17:51:45.550Z,11.78
2023-10-26T17:53:49.513Z,11.76
2023-10-26T17:55:58.743Z,11.76
2023-10-26T17:58:01.735Z,11.77
2023-10-26T18:00:05.811Z,11.85
2023-10-26T18:02:14.668Z,11.79
2023-10-26T18:04:17.610Z,11.84
2023-10-26T18:06:23.750Z,11.84
2023-10-26T18:08:26.589Z,11.60
2023-10-26T18:10:30.438Z,11.54
2023-10-26T18:12:33.430Z,11.57
2023-10-26T18:14:36.360Z,11.66
2023-10-26T18:16:39.487Z,11.66
2023-10-26T18:18:44.218Z,11.41
2023-10-26T18:20:55.537Z,11.44
2023-10-26T18:23:01.730Z,11.40
2023-10-26T18:25:05.331Z,11.35
2023-10-26T18:27:08.443Z,11.47
2023-10-26T18:29:11.307Z,11.83
2023-10-26T18:31:18.744Z,11.97
2023-10-26T18:33:21.650Z,12.00
2023-10-26T18:35:25.677Z,11.96
2023-10-26T18:37:28.713Z,11.88
2023-10-26T18:39:33.126Z,11.76
2023-10-26T18:41:36.047Z,11.63
2023-10-26T18:43:39.094Z,11.66
2023-10-26T18:45:42.202Z,11.58
2023-10-26T18:47:46.641Z,11.51
2023-10-26T18:49:51.053Z,11.47
2023-10-26T18:51:54.010Z,11.52
2023-10-26T18:53:57.175Z,11.42
2023-10-26T18:56:01.555Z,11.29
2023-10-26T18:58:04.595Z,11.20
2023-10-26T19:00:09.523Z,11.30
2023-10-26T19:02:12.682Z,11.23
2023-10-26T19:04:17.818Z,11.21
2023-10-26T19:06:20.782Z,10.99
2023-10-26T19:08:24.511Z,11.11
2023-10-26T19:10:27.584Z,11.39
2023-10-26T19:12:32.083Z,11.52
2023-10-26T19:14:35.058Z,11.42
2023-10-26T19:16:38.045Z,11.45
2023-10-26T19:18:41.107Z,11.54
2023-10-26T19:20:44.353Z,11.59
2023-10-26T19:22:49.332Z,11.62
2023-10-26T19:24:52.276Z,11.59
2023-10-26T19:26:55.312Z,11.63
2023-10-26T19:28:59.786Z,11.61
2023-10-26T19:31:02.756Z,11.62
2023-10-26T19:33:06.399Z,11.58
2023-10-26T19:35:09.484Z,11.52
2023-10-26T19:37:12.462Z,11.38
2023-10-26T19:39:15.383Z,11.18
2023-10-26T19:41:18.404Z,11.15
2023-10-26T19:43:21.384Z,11.30
2023-10-26T19:45:26.012Z,11.51
2023-10-26T19:47:29.006Z,11.55
2023-10-26T19:49:31.979Z,11.61
2023-10-26T19:51:34.870Z,11.56
2023-10-26T19:53:37.899Z,11.61
2023-10-26T19:55:41.135Z,11.58
2023-10-26T19:57:44.258Z,11.60
2023-10-26T19:59:47.663Z,11.62
2023-10-26T20:01:53.236Z,11.62
2023-10-26T20:03:56.270Z,11.49
2023-10-26T20:05:59.300Z,11.47
2023-10-26T20:08:02.187Z,11.28
2023-10-26T20:10:06.878Z,11.44
2023-10-26T20:12:10.378Z,11.47
2023-10-26T20:14:13.461Z,11.46
2023-10-26T20:16:16.772Z,11.41
2023-10-26T20:18:21.344Z,11.42
2023-10-26T20:20:29.787Z,11.44
2023-10-26T20:22:32.984Z,11.42
2023-10-26T20:24:36.148Z,11.40
2023-10-26T20:26:40.485Z,11.25
2023-10-26T20:28:43.786Z,11.31
2023-10-26T20:30:46.976Z,11.43
2023-10-26T20:32:50.418Z,11.48
2023-10-26T20:34:54.989Z,11.47
2023-10-26T20:36:58.922Z,11.51
2023-10-26T20:39:02.101Z,11.46
2023-10-26T20:41:07.171Z,11.48
2023-10-26T20:43:10.336Z,11.43
2023-10-26T20:45:13.442Z,11.37
2023-10-26T20:47:16.361Z,11.29
2023-10-26T20:49:19.438Z,11.35
2023-10-26T20:51:24.083Z,11.37
2023-10-26T20:53:29.239Z,11.27
2023-10-26T20:55:32.390Z,11.31
2023-10-26T20:57:35.360Z,11.36
2023-10-26T20:59:40.429Z,11.43
2023-10-26T21:01:45.129Z,11.46
2023-10-26T21:03:48.249Z,11.46
2023-10-26T21:05:51.861Z,11.50
2023-10-26T21:07:57.073Z,11.58
2023-10-26T21:10:00.144Z,11.52
2023-10-26T21:12:08.345Z,11.49
2023-10-26T21:14:13.033Z,11.40
2023-10-26T21:16:16.223Z,11.37
2023-10-26T21:18:19.169Z,11.26
2023-10-26T21:20:24.300Z,11.15
2023-10-26T21:22:27.256Z,10.96
2023-10-26T21:24:32.092Z,11.08
2023-10-26T21:26:34.961Z,11.16
2023-10-26T21:28:40.199Z,11.23
2023-10-26T21:30:43.134Z,11.26
2023-10-26T21:32:46.138Z,11.27
2023-10-26T21:34:49.122Z,11.26
2023-10-26T21:36:52.137Z,11.28
2023-10-26T21:38:55.052Z,11.30
2023-10-26T21:41:05.398Z,11.37
2023-10-26T21:43:08.380Z,11.31
2023-10-26T21:45:11.868Z,11.29
2023-10-26T21:47:14.895Z,11.14
2023-10-26T21:49:17.896Z,10.91
2023-10-26T21:51:20.780Z,11.07
2023-10-26T21:53:23.760Z,11.12
2023-10-26T21:55:26.656Z,11.19
2023-10-26T21:57:31.129Z,11.31
2023-10-26T21:59:34.199Z,11.28
2023-10-26T22:01:37.205Z,11.37
2023-10-26T22:03:40.573Z,11.40
2023-10-26T22:05:44.681Z,11.37
2023-10-26T22:07:47.639Z,11.46
2023-10-26T22:09:55.480Z,11.36
2023-10-26T22:11:58.758Z,11.40
2023-10-26T22:14:03.317Z,11.54
2023-10-26T22:16:06.808Z,11.43
2023-10-26T22:18:10.175Z,11.35
2023-10-26T22:20:13.279Z,11.42
2023-10-26T22:22:16.260Z,11.49
2023-10-26T22:24:19.321Z,11.36
2023-10-26T22:26:22.414Z,11.27
2023-10-26T22:28:25.283Z,11.26
2023-10-26T22:30:29.842Z,11.36
2023-10-26T22:32:32.754Z,11.32
2023-10-26T22:34:36.012Z,11.35
2023-10-26T22:36:39.390Z,11.47
2023-10-26T22:38:42.332Z,11.38
2023-10-26T22:40:45.451Z,11.45
2023-10-26T22:42:48.662Z,11.45
2023-10-26T22:44:51.824Z,11.25
2023-10-26T22:46:56.347Z,11.18
2023-10-26T22:48:59.540Z,11.20
2023-10-26T22:51:02.678Z,11.24
2023-10-26T22:53:05.652Z,11.09
2023-10-26T22:55:09.712Z,11.09
2023-10-26T22:57:12.676Z,11.09
2023-10-26T22:59:15.652Z,10.93
2023-10-26T23:01:23.299Z,11.02
2023-10-26T23:03:28.558Z,11.25
2023-10-26T23:05:31.422Z,11.22
2023-10-26T23:07:34.472Z,11.18
2023-10-26T23:09:37.704Z,11.25
2023-10-26T23:11:40.781Z,11.22
2023-10-26T23:13:43.735Z,11.09
2023-10-26T23:15:46.776Z,11.20
2023-10-26T23:17:49.753Z,11.30
2023-10-26T23:19:54.480Z,11.19
2023-10-26T23:21:57.490Z,11.18
2023-10-26T23:24:02.247Z,11.03
2023-10-26T23:26:08.168Z,10.99
2023-10-26T23:28:11.959Z,10.74
2023-10-26T23:30:15.456Z,10.76
2023-10-26T23:32:18.358Z,10.70
2023-10-26T23:34:21.357Z,10.62
2023-10-26T23:36:25.964Z,10.66
2023-10-26T23:38:28.780Z,10.62
2023-10-26T23:40:32.670Z,10.40
2023-10-26T23:42:35.610Z,10.37
2023-10-26T23:44:38.660Z,10.20
2023-10-26T23:46:41.484Z,9.99
2023-10-26T23:48:44.615Z,9.92
2023-10-26T23:50:47.515Z,9.72
2023-10-26T23:52:51.869Z,9.62
2023-10-26T23:54:54.910Z,9.49
2023-10-26T23:56:57.955Z,9.55
2023-10-26T23:59:03.593Z,9.45
